Time;durP1;ratioP1;P1;durP2;ratioP2;P2;SDS_P1;SDS_P2;PMS_P1;PMS_P2;Temp;Humidity;BMP_temperature;BMP_pressure;BME280_temperature;BME280_humidity;BME280_pressure;Samples;Min_cycle;Max_cycle;Signal;HPM_P1;HPM_P2
2022/12/26 00:01:48;;;;;;;59.00;35.47;;;10.10;99.90;;;;;;4976891;28;37763;-80
2022/12/26 00:04:15;;;;;;;49.43;31.73;;;10.10;99.90;;;;;;4985683;28;39241;-80
2022/12/26 00:06:41;;;;;;;60.43;33.73;;;10.10;99.90;;;;;;4989396;28;38078;-81
2022/12/26 00:09:07;;;;;;;71.23;35.40;;;10.10;99.90;;;;;;4991514;28;37658;-80
2022/12/26 00:11:34;;;;;;;53.13;32.27;;;10.20;99.90;;;;;;4976236;28;37657;-80
2022/12/26 00:14:05;;;;;;;54.23;32.17;;;10.20;99.90;;;;;;4987874;28;38581;-80
2022/12/26 00:16:31;;;;;;;49.90;31.57;;;10.20;99.90;;;;;;4963720;28;47838;-80
2022/12/26 00:18:57;;;;;;;67.33;35.83;;;10.10;99.90;;;;;;4983932;28;36440;-80
2022/12/26 00:21:25;;;;;;;49.77;31.53;;;10.10;99.90;;;;;;4971588;28;37677;-80
2022/12/26 00:23:53;;;;;;;61.97;34.77;;;10.20;99.90;;;;;;4991790;28;39281;-81
2022/12/26 00:26:21;;;;;;;63.63;33.67;;;10.20;99.90;;;;;;4968219;28;36868;-80
2022/12/26 00:28:47;;;;;;;49.97;30.70;;;10.20;99.90;;;;;;4977389;28;36886;-81
2022/12/26 00:31:19;;;;;;;48.20;30.00;;;10.20;99.90;;;;;;4976638;28;39008;-80
2022/12/26 00:33:46;;;;;;;47.03;29.87;;;10.20;99.90;;;;;;4974903;28;37071;-80
2022/12/26 00:36:20;;;;;;;44.33;28.50;;;10.20;99.90;;;;;;4984382;28;38423;-80
2022/12/26 00:38:46;;;;;;;50.10;30.57;;;10.20;99.90;;;;;;4980576;28;37374;-81
2022/12/26 00:41:14;;;;;;;48.97;28.37;;;10.20;99.90;;;;;;4987553;28;38892;-80
2022/12/26 00:43:40;;;;;;;49.57;29.70;;;10.20;99.90;;;;;;4976852;28;38730;-80
2022/12/26 00:46:07;;;;;;;45.90;27.97;;;10.10;99.90;;;;;;4975248;28;36967;-80
2022/12/26 00:48:33;;;;;;;43.27;27.03;;;10.10;99.90;;;;;;4992936;28;38842;-80
2022/12/26 00:51:00;;;;;;;52.50;30.50;;;10.10;99.90;;;;;;4988156;28;39602;-80
2022/12/26 00:53:27;;;;;;;42.63;25.10;;;10.10;99.90;;;;;;4973935;28;38422;-80
2022/12/26 00:55:53;;;;;;;40.93;25.80;;;10.20;99.90;;;;;;4991996;28;38829;-80
2022/12/26 00:58:20;;;;;;;39.77;25.47;;;10.00;99.90;;;;;;4972040;28;36628;-81
2022/12/26 01:00:47;;;;;;;43.40;26.50;;;10.00;99.90;;;;;;4987292;28;37938;-80
2022/12/26 01:03:14;;;;;;;40.23;24.83;;;10.10;99.90;;;;;;4990296;28;38821;-80
2022/12/26 01:05:42;;;;;;;46.07;28.73;;;10.10;99.90;;;;;;4971249;28;36808;-80
2022/12/26 01:08:09;;;;;;;37.40;24.60;;;10.10;99.90;;;;;;4970743;28;36691;-80
2022/12/26 01:10:35;;;;;;;44.47;27.50;;;10.10;99.90;;;;;;4985149;28;38464;-80
2022/12/26 01:13:01;;;;;;;43.10;26.10;;;10.10;99.90;;;;;;4970166;28;38171;-80
2022/12/26 01:15:27;;;;;;;38.80;25.07;;;10.10;99.90;;;;;;4987645;28;47710;-82
2022/12/26 01:17:53;;;;;;;42.60;26.50;;;10.10;99.90;;;;;;4970384;28;36331;-81
2022/12/26 01:20:19;;;;;;;40.50;25.77;;;10.10;99.90;;;;;;4971733;28;38427;-80
2022/12/26 01:22:45;;;;;;;35.83;24.20;;;10.10;99.90;;;;;;4989546;28;40358;-80
2022/12/26 01:25:11;;;;;;;45.73;29.07;;;10.10;99.90;;;;;;4970599;28;38501;-80
2022/12/26 01:27:37;;;;;;;49.63;28.97;;;10.10;99.90;;;;;;4965296;28;37405;-80
2022/12/26 01:30:04;;;;;;;40.10;25.73;;;10.10;99.90;;;;;;4972234;28;39220;-80
2022/12/26 01:32:30;;;;;;;44.17;26.53;;;10.10;99.90;;;;;;4972241;28;48910;-80
2022/12/26 01:34:56;;;;;;;40.17;26.47;;;10.10;99.90;;;;;;4971840;28;38287;-80
2022/12/26 01:37:23;;;;;;;37.77;25.10;;;10.10;99.90;;;;;;4970507;28;36271;-80
2022/12/26 01:39:50;;;;;;;38.17;25.73;;;10.10;99.90;;;;;;4954523;28;38669;-80
2022/12/26 01:42:20;;;;;;;36.20;24.20;;;10.00;99.90;;;;;;4956654;28;37516;-80
2022/12/26 01:45:16;;;;;;;37.90;24.80;;;9.90;99.90;;;;;;4968738;28;38409;-80
2022/12/26 01:47:48;;;;;;;32.40;23.03;;;9.90;99.90;;;;;;4975348;28;47475;-80
2022/12/26 01:50:29;;;;;;;35.67;24.43;;;9.80;99.90;;;;;;4969214;28;38478;-80
2022/12/26 01:52:58;;;;;;;34.87;24.10;;;9.80;99.90;;;;;;4968950;28;37370;-80
2022/12/26 01:55:27;;;;;;;39.27;23.43;;;9.70;99.90;;;;;;4970847;28;38418;-80
2022/12/26 01:57:59;;;;;;;39.23;23.50;;;9.70;99.90;;;;;;4957831;28;37065;-80
2022/12/26 02:05:58;;;;;;;43.43;24.10;;;9.70;99.90;;;;;;4979914;28;38352;-79
2022/12/26 02:08:29;;;;;;;35.40;21.70;;;9.60;99.90;;;;;;4968123;28;37352;-81
2022/12/26 02:11:35;;;;;;;34.30;21.27;;;9.60;99.90;;;;;;4968147;28;37579;-81
2022/12/26 02:14:03;;;;;;;35.40;22.80;;;9.50;99.90;;;;;;4987315;28;48749;-81
2022/12/26 02:16:29;;;;;;;29.50;20.97;;;9.60;99.90;;;;;;4972706;28;47153;-80
2022/12/26 02:18:55;;;;;;;27.63;20.57;;;9.50;99.90;;;;;;4980382;28;37172;-80
2022/12/26 02:21:39;;;;;;;36.90;22.97;;;9.50;99.90;;;;;;4966941;28;38384;-81
2022/12/26 02:24:14;;;;;;;34.10;22.80;;;9.50;99.90;;;;;;4967435;28;37288;-81
2022/12/26 02:27:04;;;;;;;32.27;21.40;;;9.50;99.90;;;;;;4985946;28;38407;-81
2022/12/26 02:29:30;;;;;;;27.73;20.27;;;9.40;99.90;;;;;;4987328;28;48609;-80
2022/12/26 02:32:08;;;;;;;28.80;20.43;;;9.40;99.90;;;;;;4971930;28;37227;-80
2022/12/26 02:34:49;;;;;;;34.03;22.17;;;9.50;99.90;;;;;;4966800;28;47018;-80
2022/12/26 02:37:20;;;;;;;30.77;22.37;;;9.50;99.90;;;;;;4957725;28;37030;-80
2022/12/26 02:40:36;;;;;;;33.20;23.13;;;9.40;99.90;;;;;;4977847;28;36623;-78
2022/12/26 02:43:18;;;;;;;32.77;23.63;;;9.40;99.90;;;;;;4974696;28;49990;-81
2022/12/26 02:48:51;;;;;;;37.17;24.30;;;9.20;99.90;;;;;;4989275;28;49565;-82
2022/12/26 03:15:14;;;;;;;35.57;24.63;;;9.00;99.90;;;;;;4990301;28;38616;-82
2022/12/26 03:17:46;;;;;;;42.30;25.90;;;9.00;99.90;;;;;;4971601;28;38347;-81
2022/12/26 03:20:19;;;;;;;40.58;25.98;;;9.00;99.90;;;;;;4989927;28;38144;-81
2022/12/26 03:23:04;;;;;;;36.80;24.77;;;9.00;99.90;;;;;;4986845;28;38750;-81
2022/12/26 03:28:46;;;;;;;34.23;23.37;;;9.00;99.90;;;;;;4985350;28;49444;-79
2022/12/26 03:31:14;;;;;;;36.10;24.83;;;9.10;99.90;;;;;;4983460;28;39044;-80
2022/12/26 03:36:28;;;;;;;43.30;27.17;;;9.00;99.90;;;;;;4982911;28;48898;-81
2022/12/26 04:45:04;;;;;;;14.10;9.80;;;9.40;99.90;;;;;;4986963;28;39133;-80
2022/12/26 04:47:31;;;;;;;16.73;9.30;;;9.30;99.90;;;;;;4968703;28;47864;-81
2022/12/26 04:50:14;;;;;;;15.13;10.20;;;9.30;99.90;;;;;;4968312;28;37829;-81
2022/12/26 04:52:59;;;;;;;13.18;10.40;;;9.20;99.90;;;;;;4964234;28;47214;-81
2022/12/26 04:55:27;;;;;;;13.50;9.90;;;9.20;99.90;;;;;;4970986;28;38145;-80
2022/12/26 04:57:54;;;;;;;15.77;10.43;;;9.20;99.90;;;;;;4971321;28;36168;-79
2022/12/26 05:00:23;;;;;;;13.50;9.60;;;9.20;99.90;;;;;;4986561;28;39478;-80
2022/12/26 05:11:33;;;;;;;15.30;8.87;;;9.20;99.90;;;;;;4984019;28;49682;-80
2022/12/26 05:13:59;;;;;;;15.40;8.97;;;9.30;99.90;;;;;;4991946;28;38212;-82
2022/12/26 05:30:28;;;;;;;11.53;8.47;;;9.40;99.90;;;;;;4981104;28;36544;-81
2022/12/26 05:35:39;;;;;;;17.17;9.10;;;9.40;99.90;;;;;;4985631;28;49232;-80
2022/12/26 05:38:06;;;;;;;13.33;9.23;;;9.30;99.90;;;;;;4985570;28;39007;-82
2022/12/26 05:40:32;;;;;;;14.47;9.80;;;9.30;99.90;;;;;;4964627;28;35841;-81
2022/12/26 05:42:58;;;;;;;14.30;9.40;;;9.30;99.90;;;;;;4971381;28;37678;-82
2022/12/26 05:45:25;;;;;;;16.80;9.03;;;9.30;99.90;;;;;;4971905;28;37126;-82
2022/12/26 05:47:59;;;;;;;14.80;10.33;;;9.30;99.90;;;;;;4986501;28;39083;-82
2022/12/26 05:50:26;;;;;;;11.93;9.10;;;9.20;99.90;;;;;;4968586;28;37593;-82
2022/12/26 05:52:52;;;;;;;12.63;8.80;;;9.20;99.90;;;;;;4972499;28;38200;-82
2022/12/26 05:55:18;;;;;;;13.33;9.27;;;9.10;99.90;;;;;;4969080;28;37271;-81
2022/12/26 05:57:44;;;;;;;16.03;10.20;;;9.20;99.90;;;;;;4973949;28;38021;-82
2022/12/26 06:00:11;;;;;;;15.00;8.83;;;9.20;99.90;;;;;;4964526;28;36431;-79
2022/12/26 06:02:37;;;;;;;18.17;9.40;;;9.20;99.90;;;;;;4988666;28;37717;-83
2022/12/26 06:05:03;;;;;;;16.97;11.00;;;9.30;99.90;;;;;;4987175;28;38066;-81
2022/12/26 06:07:29;;;;;;;16.03;11.10;;;9.30;99.90;;;;;;4985948;28;36892;-82
2022/12/26 06:09:55;;;;;;;13.20;9.97;;;9.30;99.90;;;;;;4985938;28;37700;-79
2022/12/26 06:12:21;;;;;;;17.20;11.77;;;9.30;99.90;;;;;;4988904;28;38232;-79
2022/12/26 06:14:47;;;;;;;16.20;12.53;;;9.30;99.90;;;;;;4970213;28;38264;-80
2022/12/26 06:17:13;;;;;;;18.43;12.57;;;9.30;99.90;;;;;;4976987;28;37180;-81
2022/12/26 06:19:40;;;;;;;18.20;12.47;;;9.20;99.90;;;;;;4982115;28;39005;-80
2022/12/26 06:22:06;;;;;;;17.60;12.30;;;9.30;99.90;;;;;;4957907;28;41253;-80
2022/12/26 06:24:32;;;;;;;14.70;11.00;;;9.40;99.90;;;;;;4980936;28;39087;-81
2022/12/26 06:26:58;;;;;;;15.33;10.50;;;9.40;99.90;;;;;;4980886;28;37307;-81
2022/12/26 06:29:24;;;;;;;16.97;9.73;;;9.40;99.90;;;;;;4963007;28;37593;-86
2022/12/26 06:31:50;;;;;;;13.80;10.37;;;9.40;99.90;;;;;;4962530;28;38032;-79
2022/12/26 06:34:17;;;;;;;15.13;9.47;;;9.40;99.90;;;;;;4959883;28;37477;-80
2022/12/26 06:36:43;;;;;;;15.00;8.87;;;9.50;99.90;;;;;;4978459;28;38137;-82
2022/12/26 06:39:09;;;;;;;14.37;7.77;;;9.50;99.90;;;;;;4965495;28;36369;-82
2022/12/26 06:41:35;;;;;;;15.07;7.40;;;9.60;99.90;;;;;;4963654;28;37693;-82
2022/12/26 06:44:01;;;;;;;17.10;7.67;;;9.50;99.90;;;;;;4965557;28;37598;-80
2022/12/26 06:46:27;;;;;;;15.27;7.77;;;9.50;99.90;;;;;;4983180;28;49049;-81
2022/12/26 06:48:54;;;;;;;13.53;7.10;;;9.50;99.90;;;;;;4978778;28;37308;-82
2022/12/26 06:51:23;;;;;;;10.20;7.00;;;9.60;99.90;;;;;;4961006;28;39552;-81
2022/12/26 06:53:51;;;;;;;12.67;7.57;;;9.60;99.90;;;;;;4962852;28;37253;-81
2022/12/26 06:56:22;;;;;;;12.73;6.83;;;9.60;99.90;;;;;;4978699;28;39058;-82
2022/12/26 06:58:59;;;;;;;15.23;7.30;;;9.70;99.90;;;;;;4983290;28;37760;-82
2022/12/26 07:01:28;;;;;;;10.87;7.10;;;9.80;99.90;;;;;;4982909;28;39244;-83
2022/12/26 07:03:54;;;;;;;12.13;6.50;;;9.80;99.90;;;;;;4963755;28;37214;-83
2022/12/26 07:06:25;;;;;;;10.33;6.87;;;9.80;99.90;;;;;;4965645;28;36914;-81
2022/12/26 07:09:00;;;;;;;13.67;6.57;;;9.80;99.90;;;;;;4983811;28;38357;-82
2022/12/26 07:11:30;;;;;;;11.00;6.07;;;9.80;99.90;;;;;;4962727;28;37887;-80
2022/12/26 07:13:56;;;;;;;13.13;5.80;;;9.90;99.90;;;;;;4961445;28;37788;-83
2022/12/26 07:16:23;;;;;;;9.80;5.53;;;9.80;99.90;;;;;;4962779;28;37637;-82
2022/12/26 07:18:52;;;;;;;11.87;6.63;;;9.90;99.90;;;;;;4965728;28;35917;-81
2022/12/26 07:21:19;;;;;;;8.40;5.67;;;9.90;99.90;;;;;;4980939;28;39108;-81
2022/12/26 07:23:45;;;;;;;12.67;5.53;;;9.90;99.90;;;;;;4987142;28;36526;-81
2022/12/26 07:26:11;;;;;;;12.73;6.00;;;9.90;99.90;;;;;;4987222;28;37202;-82
2022/12/26 07:28:37;;;;;;;14.50;6.33;;;9.90;99.90;;;;;;4987972;28;37082;-80
2022/12/26 07:31:03;;;;;;;7.97;5.60;;;10.00;99.90;;;;;;4987190;28;38952;-80
2022/12/26 07:33:30;;;;;;;14.60;6.03;;;10.00;99.90;;;;;;4969017;28;47112;-81
2022/12/26 07:36:01;;;;;;;11.73;5.77;;;10.00;99.90;;;;;;4964664;28;37937;-80
2022/12/26 07:38:27;;;;;;;9.00;6.17;;;10.00;99.90;;;;;;4980596;28;37944;-80
2022/12/26 07:40:56;;;;;;;12.80;5.97;;;10.00;99.90;;;;;;4960353;28;40447;-82
2022/12/26 07:43:23;;;;;;;16.37;6.60;;;10.00;99.90;;;;;;4963128;28;38257;-82
2022/12/26 07:45:50;;;;;;;12.00;6.17;;;10.00;99.90;;;;;;4963960;28;36903;-83
2022/12/26 07:48:16;;;;;;;10.23;6.30;;;10.00;99.90;;;;;;4967458;28;37550;-82
2022/12/26 07:50:46;;;;;;;13.13;6.90;;;10.00;99.90;;;;;;4979529;28;39210;-81
2022/12/26 07:53:15;;;;;;;10.97;6.73;;;10.00;99.90;;;;;;4961042;28;37549;-81
2022/12/26 07:55:41;;;;;;;12.77;6.37;;;10.00;99.90;;;;;;4981236;28;38096;-82
2022/12/26 07:58:07;;;;;;;13.27;6.90;;;10.00;99.90;;;;;;4985480;28;35973;-80
2022/12/26 08:00:33;;;;;;;12.57;6.40;;;10.00;99.90;;;;;;4968424;28;37633;-81
2022/12/26 08:02:59;;;;;;;9.30;6.37;;;10.00;99.90;;;;;;4983379;28;38454;-81
2022/12/26 08:05:25;;;;;;;12.20;6.17;;;10.00;99.90;;;;;;4961557;28;36639;-80
2022/12/26 08:07:51;;;;;;;13.30;6.33;;;10.00;99.90;;;;;;4961779;28;36159;-81
2022/12/26 08:10:17;;;;;;;11.40;6.50;;;10.10;99.90;;;;;;4958685;28;37522;-79
2022/12/26 08:12:43;;;;;;;11.50;6.00;;;10.10;99.90;;;;;;4981301;28;38657;-82
2022/12/26 08:15:12;;;;;;;13.97;5.77;;;10.10;99.90;;;;;;4960517;28;38264;-80
2022/12/26 08:17:38;;;;;;;11.90;5.70;;;10.10;99.90;;;;;;4964011;28;35995;-81
2022/12/26 08:20:05;;;;;;;15.60;6.03;;;10.20;99.90;;;;;;4980080;28;38789;-79
2022/12/26 08:22:31;;;;;;;11.37;4.97;;;10.20;99.90;;;;;;4981167;28;38817;-80
2022/12/26 08:24:57;;;;;;;13.03;6.13;;;10.20;99.90;;;;;;4982342;28;37264;-82
2022/12/26 08:27:23;;;;;;;15.87;5.87;;;10.30;99.90;;;;;;4961933;28;38711;-82
2022/12/26 08:29:49;;;;;;;20.37;6.30;;;10.30;99.90;;;;;;4965952;28;39313;-83
2022/12/26 08:32:15;;;;;;;17.53;6.27;;;10.30;99.90;;;;;;4960296;28;38399;-83
2022/12/26 08:34:41;;;;;;;7.03;4.63;;;10.20;99.90;;;;;;4971330;28;37836;-83
2022/12/26 08:37:07;;;;;;;12.30;5.00;;;10.30;99.90;;;;;;4963292;28;35904;-82
2022/12/26 08:39:34;;;;;;;13.73;4.17;;;10.20;99.90;;;;;;4963634;28;38089;-82
2022/12/26 08:42:00;;;;;;;16.37;4.10;;;10.20;99.90;;;;;;4961001;28;38232;-82
2022/12/26 08:44:26;;;;;;;14.40;3.87;;;10.20;99.90;;;;;;4986371;28;38228;-83
2022/12/26 08:46:52;;;;;;;17.43;4.60;;;10.10;99.90;;;;;;4968516;28;35977;-82
2022/12/26 08:49:18;;;;;;;23.23;4.63;;;10.10;99.90;;;;;;4982817;28;38919;-81
2022/12/26 08:51:44;;;;;;;20.23;4.17;;;10.10;99.90;;;;;;4969716;28;37344;-80
2022/12/26 08:54:10;;;;;;;17.83;3.63;;;10.10;99.90;;;;;;4980006;28;38242;-82
2022/12/26 08:56:36;;;;;;;21.10;3.23;;;10.00;99.90;;;;;;4969366;28;36132;-80
2022/12/26 08:59:03;;;;;;;18.47;4.40;;;10.00;99.90;;;;;;4986296;28;38935;-81
2022/12/26 09:01:30;;;;;;;10.43;2.57;;;9.90;99.90;;;;;;4978167;28;39171;-82
2022/12/26 09:03:59;;;;;;;14.03;2.70;;;9.90;99.90;;;;;;4962282;28;36889;-81
2022/12/26 09:06:25;;;;;;;19.63;3.00;;;9.80;99.90;;;;;;4979939;28;36980;-83
2022/12/26 09:08:52;;;;;;;21.27;2.80;;;9.80;99.90;;;;;;4964898;28;39505;-81
2022/12/26 09:11:21;;;;;;;16.53;2.70;;;9.80;99.90;;;;;;4980194;28;38136;-81
2022/12/26 09:13:48;;;;;;;17.77;2.97;;;9.80;99.90;;;;;;4982989;28;37535;-80
2022/12/26 09:16:23;;;;;;;22.87;3.70;;;9.80;99.90;;;;;;4981647;28;37916;-81
2022/12/26 09:18:57;;;;;;;23.50;3.47;;;9.70;99.90;;;;;;4977233;28;39934;-82
2022/12/26 09:21:25;;;;;;;26.13;3.57;;;9.70;99.90;;;;;;4973276;28;40431;-80
2022/12/26 09:24:00;;;;;;;28.70;3.90;;;9.60;99.90;;;;;;4969324;28;37099;-81
2022/12/26 09:26:26;;;;;;;22.00;3.27;;;9.60;99.90;;;;;;4969795;28;35956;-81
2022/12/26 09:28:53;;;;;;;21.57;2.90;;;9.40;99.90;;;;;;4964407;28;39091;-80
2022/12/26 09:31:28;;;;;;;17.03;2.50;;;9.20;99.90;;;;;;4973306;28;38314;-79
2022/12/26 09:33:54;;;;;;;17.43;2.40;;;9.20;99.90;;;;;;4981774;28;38032;-82
2022/12/26 09:36:25;;;;;;;9.07;2.20;;;9.20;99.90;;;;;;4967017;28;37314;-82
2022/12/26 09:38:51;;;;;;;19.03;2.27;;;9.10;99.90;;;;;;4975005;28;37747;-81
2022/12/26 09:41:23;;;;;;;16.87;2.90;;;9.10;99.90;;;;;;4968458;28;38094;-82
2022/12/26 09:44:08;;;;;;;11.37;2.30;;;9.10;99.90;;;;;;4969553;28;37102;-80
2022/12/26 09:46:39;;;;;;;12.17;3.50;;;9.20;99.90;;;;;;4982079;28;49549;-82
2022/12/26 09:49:12;;;;;;;12.67;2.83;;;9.10;99.90;;;;;;4980298;28;37586;-80
2022/12/26 09:51:42;;;;;;;12.17;2.27;;;9.10;99.90;;;;;;4967763;28;37220;-80
2022/12/26 09:54:16;;;;;;;11.07;2.43;;;9.10;99.90;;;;;;4983666;28;38928;-79
2022/12/26 09:56:45;;;;;;;12.57;3.10;;;9.10;99.90;;;;;;4964442;28;37880;-81
2022/12/26 09:59:18;;;;;;;11.20;2.33;;;9.10;99.90;;;;;;4965436;28;37678;-81
2022/12/26 10:01:47;;;;;;;12.67;2.13;;;9.00;99.90;;;;;;4959783;28;37473;-84
2022/12/26 10:04:23;;;;;;;9.70;1.50;;;9.00;99.90;;;;;;4979532;28;38707;-84
2022/12/26 10:07:07;;;;;;;8.40;1.33;;;8.90;99.90;;;;;;4977974;28;37676;-83
2022/12/26 10:09:54;;;;;;;6.33;1.30;;;8.90;99.90;;;;;;4980134;28;47513;-84
2022/12/26 10:12:37;;;;;;;8.27;1.00;;;8.80;99.90;;;;;;4965781;28;37004;-84
2022/12/26 10:15:06;;;;;;;;;;;8.70;99.90;;;;;;4966632;28;38137;-83
2022/12/26 10:17:43;;;;;;;14.60;1.97;;;8.70;99.90;;;;;;4968738;28;48023;-84
2022/12/26 10:20:18;;;;;;;6.23;1.60;;;8.70;99.90;;;;;;4965497;28;37816;-85
2022/12/26 10:23:09;;;;;;;10.87;1.77;;;8.70;99.90;;;;;;4980459;28;38504;-83
2022/12/26 10:25:41;;;;;;;12.13;1.77;;;8.70;99.90;;;;;;4983993;28;48056;-82
2022/12/26 10:28:26;;;;;;;10.03;1.70;;;8.70;99.90;;;;;;4987499;28;36924;-85
2022/12/26 10:30:56;;;;;;;9.17;1.70;;;8.70;99.90;;;;;;4988662;28;38453;-84
2022/12/26 10:33:46;;;;;;;8.13;1.30;;;8.60;99.90;;;;;;4971900;28;37900;-83
2022/12/26 10:36:20;;;;;;;7.03;1.67;;;8.60;99.90;;;;;;4990308;28;37651;-84
2022/12/26 10:38:51;;;;;;;7.73;1.30;;;8.60;99.90;;;;;;4966776;28;36110;-86
2022/12/26 10:41:24;;;;;;;6.57;1.17;;;8.50;99.90;;;;;;4982783;28;38050;-86
2022/12/26 10:43:50;;;;;;;5.90;1.57;;;8.40;99.90;;;;;;4974296;28;37357;-87
2022/12/26 10:46:57;;;;;;;7.80;1.30;;;8.40;99.90;;;;;;4975419;28;36918;-87
2022/12/26 10:49:25;;;;;;;8.70;1.23;;;8.30;99.90;;;;;;4946070;28;36411;-87
2022/12/26 10:51:55;;;;;;;5.17;1.00;;;8.20;99.90;;;;;;4971558;28;39075;-87
2022/12/26 10:54:21;;;;;;;9.77;1.67;;;8.20;99.90;;;;;;4963426;28;36187;-83
2022/12/26 10:56:50;;;;;;;7.90;1.50;;;8.10;99.90;;;;;;4988964;28;38814;-86
2022/12/26 10:59:25;;;;;;;3.20;1.20;;;8.10;99.90;;;;;;4988800;28;38125;-88
2022/12/26 11:01:51;;;;;;;8.30;1.33;;;8.20;99.90;;;;;;4989091;28;37614;-85
2022/12/26 11:04:23;;;;;;;5.37;1.30;;;8.20;99.90;;;;;;4969771;28;37582;-87
2022/12/26 11:06:53;;;;;;;4.07;0.90;;;8.20;99.90;;;;;;4988582;28;37765;-86
2022/12/26 11:09:38;;;;;;;8.53;1.47;;;8.10;99.90;;;;;;4971705;28;35900;-88
2022/12/26 11:12:17;;;;;;;4.53;0.90;;;8.20;99.90;;;;;;4970008;28;39285;-88
2022/12/26 11:14:44;;;;;;;9.13;1.60;;;8.30;99.90;;;;;;4990439;28;36977;-87
2022/12/26 11:17:32;;;;;;;5.37;1.30;;;8.40;99.90;;;;;;4988949;28;38240;-85
2022/12/26 11:20:21;;;;;;;7.13;0.90;;;8.50;99.90;;;;;;4967753;28;35951;-86
2022/12/26 11:22:47;;;;;;;6.27;1.17;;;8.60;99.90;;;;;;4985960;28;48514;-87
2022/12/26 11:25:29;;;;;;;3.57;0.87;;;8.60;99.90;;;;;;4987136;28;38283;-87
2022/12/26 11:27:57;;;;;;;5.63;0.73;;;8.60;99.90;;;;;;4986300;28;38167;-84
2022/12/26 11:30:37;;;;;;;7.97;1.20;;;8.70;99.90;;;;;;4978025;28;36596;-88
2022/12/26 11:33:21;;;;;;;6.20;1.10;;;8.60;99.90;;;;;;4971384;28;37652;-86
2022/12/26 11:35:51;;;;;;;5.00;1.00;;;8.70;99.90;;;;;;4973426;28;37728;-87
2022/12/26 11:38:35;;;;;;;5.37;1.10;;;8.70;99.90;;;;;;4968011;28;35519;-89
2022/12/26 11:43:53;;;;;;;4.90;0.90;;;8.80;99.90;;;;;;4976127;28;49252;-85
2022/12/26 11:46:21;;;;;;;4.07;0.57;;;8.70;99.90;;;;;;4982566;28;37190;-86
2022/12/26 11:48:50;;;;;;;3.37;0.77;;;8.70;99.90;;;;;;4976622;28;36866;-88
2022/12/26 11:51:44;;;;;;;3.00;1.00;;;8.70;99.90;;;;;;4954948;28;38757;-86
2022/12/26 11:54:30;;;;;;;4.10;0.90;;;8.60;99.90;;;;;;4992347;28;39913;-89
2022/12/26 11:57:06;;;;;;;5.50;0.73;;;8.50;99.90;;;;;;4977631;28;38163;-89
2022/12/26 11:59:32;;;;;;;4.57;2.10;;;8.50;99.90;;;;;;4964659;28;47667;-88
2022/12/26 12:02:24;;;;;;;5.27;1.00;;;8.50;99.90;;;;;;4968112;28;36698;-89
2022/12/26 12:04:53;;;;;;;5.60;0.80;;;8.50;99.90;;;;;;4934447;28;47136;-88
2022/12/26 12:07:33;;;;;;;4.53;0.90;;;8.50;99.90;;;;;;4950810;28;39166;-88
2022/12/26 12:10:37;;;;;;;2.53;0.70;;;8.60;99.90;;;;;;4958107;28;36735;-86
2022/12/26 12:13:25;;;;;;;5.80;0.80;;;8.70;99.90;;;;;;4939337;28;48495;-86
2022/12/26 12:16:00;;;;;;;5.37;0.83;;;8.50;99.90;;;;;;4964647;28;37937;-85
2022/12/26 12:19:06;;;;;;;3.43;0.77;;;8.40;99.90;;;;;;4965885;28;38041;-86
2022/12/26 12:21:42;;;;;;;4.40;0.60;;;8.20;99.90;;;;;;4947821;28;47128;-85
2022/12/26 12:24:34;;;;;;;6.17;1.30;;;8.20;99.90;;;;;;4967222;28;37297;-88
2022/12/26 12:27:26;;;;;;;6.23;1.00;;;8.20;99.90;;;;;;4969682;28;38111;-87
2022/12/26 12:30:16;;;;;;;4.70;0.97;;;8.20;99.90;;;;;;4949636;28;47107;-87
2022/12/26 12:33:07;;;;;;;11.30;2.03;;;8.30;99.90;;;;;;4949775;28;47359;-88
2022/12/26 12:35:57;;;;;;;6.67;1.33;;;8.20;99.90;;;;;;4964720;28;48788;-86
2022/12/26 12:38:43;;;;;;;3.07;0.90;;;8.10;99.90;;;;;;4947361;28;20051;-85
2022/12/26 12:41:34;;;;;;;3.37;1.00;;;8.10;99.90;;;;;;4958775;28;37458;-87
2022/12/26 12:44:15;;;;;;;7.77;0.80;;;8.00;99.90;;;;;;4962849;28;36733;-86
2022/12/26 12:47:03;;;;;;;5.90;1.20;;;8.00;99.90;;;;;;4970445;28;48458;-90
2022/12/26 12:49:54;;;;;;;9.40;0.90;;;8.10;99.90;;;;;;4947539;28;47423;-83
2022/12/26 12:52:45;;;;;;;6.83;1.40;;;8.10;99.90;;;;;;4961333;28;37607;-85
2022/12/26 12:55:33;;;;;;;9.37;1.03;;;8.20;99.90;;;;;;4967275;28;37664;-85
2022/12/26 12:58:15;;;;;;;6.77;1.07;;;8.30;99.90;;;;;;4948100;28;36036;-86
2022/12/26 13:01:06;;;;;;;9.25;0.80;;;8.30;99.90;;;;;;4943864;28;47206;-86
2022/12/26 13:03:46;;;;;;;4.57;0.70;;;8.20;99.90;;;;;;4949545;28;47046;-87
2022/12/26 13:06:18;;;;;;;4.90;1.43;;;8.30;99.90;;;;;;4958963;28;37158;-87
2022/12/26 13:08:51;;;;;;;6.47;0.90;;;8.30;99.90;;;;;;4956935;28;35851;-81
2022/12/26 13:11:38;;;;;;;;;;;8.30;99.90;;;;;;4944704;28;38072;-84
2022/12/26 13:14:26;;;;;;;7.67;1.10;;;8.40;99.90;;;;;;4942451;28;39428;-84
2022/12/26 13:17:03;;;;;;;4.80;0.97;;;8.40;99.90;;;;;;4968284;28;37904;-85
2022/12/26 13:19:58;;;;;;;9.90;1.13;;;8.60;99.90;;;;;;4949490;28;46998;-85
2022/12/26 13:25:32;;;;;;;6.93;1.07;;;8.30;99.90;;;;;;4970085;28;39962;-83
2022/12/26 13:28:08;;;;;;;7.07;1.45;;;8.20;99.90;;;;;;4968481;28;38014;-84
2022/12/26 13:30:35;;;;;;;10.77;1.10;;;8.10;99.90;;;;;;4951344;28;48593;-81
2022/12/26 13:33:03;;;;;;;5.60;0.90;;;8.00;99.90;;;;;;4975647;28;38941;-84
2022/12/26 13:35:51;;;;;;;4.17;0.77;;;8.00;99.90;;;;;;4966459;28;48759;-86
2022/12/26 13:38:18;;;;;;;7.27;1.40;;;8.00;99.90;;;;;;4965110;28;36954;-84
2022/12/26 13:44:04;;;;;;;6.93;1.20;;;8.00;99.90;;;;;;4922059;28;49121;-83
2022/12/26 13:46:54;;;;;;;4.80;0.97;;;8.00;99.90;;;;;;4963176;28;47213;-85
2022/12/26 13:49:37;;;;;;;2.43;0.80;;;8.00;99.90;;;;;;4965684;28;37056;-82
2022/12/26 13:52:09;;;;;;;7.83;1.07;;;8.10;99.90;;;;;;4968481;28;37910;-83
2022/12/26 13:54:46;;;;;;;9.30;1.33;;;8.10;99.90;;;;;;4966532;28;39695;-84
2022/12/26 13:57:31;;;;;;;5.27;1.13;;;8.10;99.90;;;;;;4964184;28;40595;-84
2022/12/26 14:00:08;;;;;;;8.10;0.97;;;8.10;99.90;;;;;;4968486;28;37776;-86
2022/12/26 14:02:59;;;;;;;4.13;1.00;;;8.10;99.90;;;;;;4969241;28;35973;-84
2022/12/26 14:05:39;;;;;;;8.97;1.23;;;8.10;99.90;;;;;;4971394;28;37450;-84
2022/12/26 14:08:14;;;;;;;7.77;1.23;;;8.10;99.90;;;;;;4983768;28;38883;-84
2022/12/26 14:11:02;;;;;;;5.33;0.93;;;8.10;99.90;;;;;;4977992;28;37899;-84
2022/12/26 14:14:00;;;;;;;7.80;1.10;;;8.00;99.90;;;;;;4984095;28;37256;-83
2022/12/26 14:16:53;;;;;;;7.17;1.30;;;8.10;99.90;;;;;;4916853;28;39880;-80
2022/12/26 14:19:38;;;;;;;;;;;8.10;99.90;;;;;;4965385;28;38347;-83
2022/12/26 14:22:17;;;;;;;14.13;1.87;;;8.10;99.90;;;;;;4966957;28;36772;-82
2022/12/26 14:25:02;;;;;;;10.70;1.50;;;8.10;99.90;;;;;;4967728;28;34806;-83
2022/12/26 14:27:43;;;;;;;10.03;1.10;;;8.20;99.90;;;;;;4986759;28;38909;-83
2022/12/26 14:30:20;;;;;;;9.40;1.30;;;8.20;99.90;;;;;;4984546;28;37673;-83
2022/12/26 14:32:49;;;;;;;7.30;1.43;;;8.20;99.90;;;;;;4986301;28;37987;-83
2022/12/26 14:35:27;;;;;;;8.47;1.40;;;8.20;99.90;;;;;;4987630;28;36290;-83
2022/12/26 14:38:04;;;;;;;6.27;1.23;;;8.10;99.90;;;;;;4988077;28;39916;-80
2022/12/26 14:40:34;;;;;;;9.70;2.23;;;8.10;99.90;;;;;;4972126;28;47055;-83
2022/12/26 14:43:09;;;;;;;8.80;1.50;;;8.10;99.90;;;;;;4963952;28;38730;-80
2022/12/26 14:45:44;;;;;;;12.50;1.93;;;8.10;99.90;;;;;;4990475;28;48976;-83
2022/12/26 14:48:16;;;;;;;14.07;2.03;;;8.00;99.90;;;;;;4986900;28;37647;-80
2022/12/26 14:50:54;;;;;;;9.07;1.50;;;7.90;99.90;;;;;;4985452;28;38048;-79
2022/12/26 14:53:28;;;;;;;12.00;1.80;;;7.90;99.90;;;;;;4967680;28;38973;-82
2022/12/26 14:56:06;;;;;;;16.60;2.60;;;7.80;99.90;;;;;;4985767;28;36781;-85
2022/12/26 14:58:41;;;;;;;8.90;2.03;;;7.80;99.90;;;;;;4979659;28;47228;-82
2022/12/26 15:01:19;;;;;;;14.20;1.80;;;7.70;99.90;;;;;;4984059;28;37664;-83
2022/12/26 15:04:09;;;;;;;9.60;1.73;;;7.60;99.90;;;;;;4988869;28;38521;-83
2022/12/26 15:06:45;;;;;;;14.50;2.40;;;7.60;99.90;;;;;;4981502;28;47104;-80
2022/12/26 15:09:48;;;;;;;15.63;2.70;;;7.50;99.90;;;;;;4978862;28;39995;-85
2022/12/26 15:12:33;;;;;;;8.47;1.60;;;7.50;99.90;;;;;;4983910;28;37192;-83
2022/12/26 15:15:21;;;;;;;8.03;1.80;;;7.40;99.90;;;;;;4963805;28;38832;-84
2022/12/26 15:18:24;;;;;;;12.70;2.13;;;7.40;99.90;;;;;;4984521;28;47525;-87
2022/12/26 15:20:59;;;;;;;16.83;1.87;;;7.30;99.90;;;;;;4983782;28;48505;-84
2022/12/26 15:23:50;;;;;;;10.00;1.67;;;7.30;99.90;;;;;;4981495;28;38653;-84
2022/12/26 15:26:22;;;;;;;10.83;1.77;;;7.30;99.90;;;;;;4963559;28;37282;-82
2022/12/26 15:29:16;;;;;;;20.10;2.55;;;7.20;99.90;;;;;;4983176;28;37941;-81
2022/12/26 15:32:18;;;;;;;9.93;1.93;;;7.10;99.90;;;;;;4982825;28;47259;-83
2022/12/26 15:35:00;;;;;;;12.77;2.43;;;7.10;99.90;;;;;;4925050;28;48751;-83
2022/12/26 15:37:46;;;;;;;11.45;2.38;;;7.00;99.90;;;;;;4981818;28;37919;-82